createdAt,value
2023-05-10T00:01:23.067Z,6.17
2023-05-10T00:03:56.222Z,6.20
2023-05-10T00:06:29.096Z,6.16
2023-05-10T00:09:04.538Z,6.22
2023-05-10T00:11:37.027Z,6.19
2023-05-10T00:14:10.194Z,6.14
2023-05-10T00:16:42.656Z,6.11
2023-05-10T00:19:16.143Z,6.11
2023-05-10T00:21:49.052Z,6.13
2023-05-10T00:24:23.229Z,6.09
2023-05-10T00:26:55.736Z,6.13
2023-05-10T00:29:29.835Z,6.10
2023-05-10T00:32:02.440Z,6.03
2023-05-10T00:34:35.638Z,6.09
2023-05-10T00:37:08.153Z,6.09
2023-05-10T00:39:42.208Z,6.02
2023-05-10T00:42:15.029Z,6.12
2023-05-10T00:44:48.500Z,6.12
2023-05-10T00:47:23.114Z,6.15
2023-05-10T00:49:56.908Z,6.17
2023-05-10T00:52:30.727Z,6.12
2023-05-10T00:55:08.329Z,6.17
2023-05-10T00:57:41.153Z,6.19
2023-05-10T01:00:19.275Z,6.21
2023-05-10T01:02:53.765Z,6.20
2023-05-10T01:05:29.116Z,6.19
2023-05-10T01:08:04.181Z,6.17
2023-05-10T01:10:38.756Z,6.14
2023-05-10T01:13:12.924Z,6.07
2023-05-10T01:15:47.621Z,6.09
2023-05-10T01:18:22.999Z,6.07
2023-05-10T01:21:06.707Z,6.08
2023-05-10T01:24:07.482Z,6.03
2023-05-10T01:27:04.915Z,6.07
2023-05-10T01:30:21.821Z,6.08
2023-05-10T01:33:02.782Z,6.03
2023-05-10T01:35:42.729Z,6.09
2023-05-10T01:38:21.343Z,6.07
2023-05-10T01:41:01.618Z,6.06
2023-05-10T01:43:44.453Z,6.05
2023-05-10T01:46:21.773Z,6.07
2023-05-10T01:48:59.552Z,6.13
2023-05-10T01:51:40.659Z,6.01
2023-05-10T01:54:15.622Z,6.09
2023-05-10T01:56:54.128Z,6.07
2023-05-10T01:59:30.718Z,6.06
2023-05-10T02:02:05.683Z,6.01
2023-05-10T02:04:41.391Z,6.07
2023-05-10T02:07:15.307Z,6.08
2023-05-10T02:09:49.525Z,6.08
2023-05-10T02:12:24.155Z,6.10
2023-05-10T02:14:58.547Z,6.07
2023-05-10T02:17:33.341Z,6.14
2023-05-10T02:20:11.596Z,6.08
2023-05-10T02:22:49.845Z,6.14
2023-05-10T02:25:24.966Z,6.13
2023-05-10T02:27:59.333Z,6.13
2023-05-10T02:30:33.875Z,6.05
2023-05-10T02:33:07.201Z,6.08
2023-05-10T02:35:42.300Z,5.98
2023-05-10T02:38:17.266Z,6.13
2023-05-10T02:40:50.861Z,6.14
2023-05-10T02:43:24.986Z,6.19
2023-05-10T02:45:57.873Z,6.22
2023-05-10T02:48:30.778Z,6.26
2023-05-10T02:51:08.284Z,6.29
2023-05-10T02:53:45.613Z,6.31
2023-05-10T02:56:27.302Z,6.42
2023-05-10T02:59:00.227Z,6.31
2023-05-10T03:01:33.834Z,6.49
2023-05-10T03:04:07.921Z,6.46
2023-05-10T03:06:43.200Z,6.56
2023-05-10T03:09:16.760Z,6.58
2023-05-10T03:12:03.179Z,6.63
2023-05-10T03:14:51.578Z,6.67
2023-05-10T03:17:38.147Z,6.72
2023-05-10T03:20:14.584Z,6.73
2023-05-10T03:22:53.758Z,6.72
2023-05-10T03:25:28.312Z,6.75
2023-05-10T03:28:02.389Z,6.83
2023-05-10T03:30:37.191Z,6.83
2023-05-10T03:33:09.945Z,6.93
2023-05-10T03:35:47.251Z,6.98
2023-05-10T03:38:22.296Z,6.92
2023-05-10T03:40:55.480Z,7.10
2023-05-10T03:43:28.599Z,7.15
2023-05-10T03:46:03.328Z,7.19
2023-05-10T03:48:36.229Z,7.24
2023-05-10T03:51:09.601Z,7.29
2023-05-10T03:53:43.491Z,7.29
2023-05-10T03:56:16.384Z,7.37
2023-05-10T03:58:49.584Z,7.34
2023-05-10T04:01:22.632Z,7.38
2023-05-10T04:03:55.522Z,7.45
2023-05-10T04:06:28.206Z,7.49
2023-05-10T04:09:05.865Z,7.46
2023-05-10T04:11:38.370Z,7.56
2023-05-10T04:14:11.283Z,7.61
2023-05-10T04:16:43.899Z,7.65
2023-05-10T04:19:17.428Z,7.69
2023-05-10T04:21:50.303Z,7.76
2023-05-10T04:24:25.091Z,7.82
2023-05-10T04:26:57.975Z,7.87
2023-05-10T04:29:30.911Z,7.94
2023-05-10T04:32:04.665Z,8.02
2023-05-10T04:34:37.834Z,7.90
2023-05-10T04:37:10.346Z,8.16
2023-05-10T04:39:45.093Z,8.25
2023-05-10T04:42:17.606Z,8.29
2023-05-10T04:44:50.738Z,8.45
2023-05-10T04:47:23.263Z,8.53
2023-05-10T04:49:56.124Z,8.63
2023-05-10T04:52:28.855Z,8.62
2023-05-10T04:55:03.228Z,8.78
2023-05-10T04:57:36.528Z,8.85
2023-05-10T05:00:10.601Z,8.93
2023-05-10T05:02:45.090Z,9.01
2023-05-10T05:05:17.953Z,9.05
2023-05-10T05:07:50.592Z,9.17
2023-05-10T05:10:24.698Z,9.26
2023-05-10T05:12:59.071Z,9.33
2023-05-10T05:15:31.759Z,9.36
2023-05-10T05:18:04.609Z,9.49
2023-05-10T05:20:37.438Z,9.57
2023-05-10T05:23:10.526Z,9.67
2023-05-10T05:25:44.481Z,9.77
2023-05-10T05:28:17.499Z,9.87
2023-05-10T05:30:50.215Z,9.95
2023-05-10T05:33:23.789Z,9.76
2023-05-10T05:35:56.335Z,9.98
2023-05-10T05:38:29.273Z,10.12
2023-05-10T05:41:04.193Z,10.24
2023-05-10T05:43:38.436Z,10.32
2023-05-10T05:46:11.460Z,10.41
2023-05-10T05:48:44.512Z,10.48
2023-05-10T05:51:17.283Z,10.55
2023-05-10T05:53:50.401Z,10.64
2023-05-10T05:56:25.731Z,10.72
2023-05-10T05:58:59.006Z,10.80
2023-05-10T06:01:31.488Z,10.64
2023-05-10T06:04:05.108Z,11.00
2023-05-10T06:06:37.766Z,11.11
2023-05-10T06:09:10.664Z,11.22
2023-05-10T06:11:45.222Z,11.28
2023-05-10T06:14:18.335Z,11.42
2023-05-10T06:16:51.148Z,11.51
2023-05-10T06:19:24.130Z,11.61
2023-05-10T06:21:57.548Z,11.67
2023-05-10T06:24:30.088Z,11.76
2023-05-10T06:27:05.591Z,11.83
2023-05-10T06:29:38.134Z,11.97
2023-05-10T06:32:10.853Z,12.02
2023-05-10T06:34:44.820Z,12.10
2023-05-10T06:37:17.709Z,12.19
2023-05-10T06:39:50.717Z,12.26
2023-05-10T06:42:26.922Z,12.28
2023-05-10T06:44:59.593Z,12.43
2023-05-10T06:47:32.820Z,12.52
2023-05-10T06:50:06.859Z,12.61
2023-05-10T06:52:40.044Z,12.72
2023-05-10T06:55:13.992Z,12.83
2023-05-10T06:57:48.534Z,12.97
2023-05-10T07:00:21.669Z,13.08
2023-05-10T07:02:55.270Z,13.20
2023-05-10T07:05:29.488Z,13.07
2023-05-10T07:08:02.058Z,13.34
2023-05-10T07:10:35.221Z,13.40
2023-05-10T07:13:09.688Z,13.46
2023-05-10T07:15:42.687Z,13.57
2023-05-10T07:18:15.395Z,13.72
2023-05-10T07:20:48.852Z,13.79
2023-05-10T07:23:21.728Z,13.91
2023-05-10T07:25:55.244Z,13.95
2023-05-10T07:28:29.337Z,14.01
2023-05-10T07:31:02.551Z,14.11
2023-05-10T07:33:35.166Z,14.17
2023-05-10T07:36:08.565Z,14.23
2023-05-10T07:38:41.587Z,14.25
2023-05-10T07:41:14.546Z,14.26
2023-05-10T07:43:48.982Z,14.26
2023-05-10T07:46:22.290Z,14.24
2023-05-10T07:48:54.991Z,14.26
2023-05-10T07:51:29.155Z,14.26
2023-05-10T07:54:03.977Z,14.24
2023-05-10T07:56:36.494Z,14.28
2023-05-10T07:59:12.584Z,14.36
2023-05-10T08:01:46.094Z,14.38
2023-05-10T08:04:18.996Z,14.39
2023-05-10T08:06:51.855Z,14.43
2023-05-10T08:09:25.901Z,14.51
2023-05-10T08:11:59.923Z,14.52
2023-05-10T08:14:34.561Z,14.45
2023-05-10T08:17:07.247Z,14.26
2023-05-10T08:19:40.482Z,14.16
2023-05-10T08:22:13.434Z,14.07
2023-05-10T08:24:46.380Z,13.94
2023-05-10T08:27:19.486Z,13.84
2023-05-10T08:29:53.430Z,13.80
2023-05-10T08:32:26.614Z,13.83
2023-05-10T08:34:59.219Z,13.78
2023-05-10T08:37:33.410Z,13.85
2023-05-10T08:40:07.608Z,13.85
2023-05-10T08:42:44.810Z,13.89
2023-05-10T08:45:21.129Z,13.92
2023-05-10T08:47:54.884Z,13.93
2023-05-10T08:50:28.087Z,14.06
2023-05-10T08:53:05.115Z,14.19
2023-05-10T08:55:39.896Z,14.31
2023-05-10T08:58:12.561Z,14.34
2023-05-10T09:00:48.515Z,14.47
2023-05-10T09:03:21.807Z,14.48
2023-05-10T09:05:56.920Z,14.54
2023-05-10T09:08:32.184Z,14.59
2023-05-10T09:11:05.113Z,14.66
2023-05-10T09:13:38.420Z,14.62
2023-05-10T09:16:21.078Z,14.70
2023-05-10T09:18:55.289Z,14.72
2023-05-10T09:21:28.312Z,14.75
2023-05-10T09:24:04.866Z,14.77
2023-05-10T09:26:48.579Z,14.64
2023-05-10T09:29:22.229Z,14.76
2023-05-10T09:31:56.427Z,14.71
2023-05-10T09:34:32.367Z,14.76
2023-05-10T09:37:05.652Z,14.75
2023-05-10T09:39:39.161Z,14.81
2023-05-10T09:42:11.723Z,14.94
2023-05-10T09:44:44.901Z,15.04
2023-05-10T09:47:23.109Z,15.03
2023-05-10T09:50:04.354Z,15.09
2023-05-10T09:52:48.891Z,15.07
2023-05-10T09:55:23.270Z,15.01
2023-05-10T09:58:01.659Z,14.96
2023-05-10T10:00:36.952Z,14.91
2023-05-10T10:03:16.641Z,14.90
2023-05-10T10:05:50.434Z,14.88
2023-05-10T10:08:23.564Z,14.87
2023-05-10T10:10:56.820Z,14.80
2023-05-10T10:13:29.578Z,14.79
2023-05-10T10:16:03.508Z,14.75
2023-05-10T10:18:40.853Z,14.74
2023-05-10T10:21:15.334Z,14.71
2023-05-10T10:23:47.936Z,14.77
2023-05-10T10:26:22.235Z,14.81
2023-05-10T10:29:08.740Z,14.89
2023-05-10T10:31:47.997Z,15.03
2023-05-10T10:34:31.027Z,15.23
2023-05-10T10:37:06.199Z,15.35
2023-05-10T10:39:38.799Z,15.54
2023-05-10T10:42:11.748Z,15.61
2023-05-10T10:44:46.228Z,15.68
2023-05-10T10:47:31.084Z,15.68
2023-05-10T10:50:07.174Z,15.66
2023-05-10T10:52:40.939Z,15.55
2023-05-10T10:55:15.821Z,15.40
2023-05-10T10:57:50.064Z,15.38
2023-05-10T11:00:25.920Z,15.31
2023-05-10T11:03:00.580Z,15.21
2023-05-10T11:05:40.898Z,15.24
2023-05-10T11:08:17.391Z,15.24
2023-05-10T11:10:53.567Z,15.34
2023-05-10T11:13:31.153Z,15.33
2023-05-10T11:16:16.194Z,15.44
2023-05-10T11:18:59.157Z,15.40
2023-05-10T11:21:35.429Z,15.52
2023-05-10T11:24:15.088Z,15.64
2023-05-10T11:26:51.220Z,15.61
2023-05-10T11:29:24.038Z,15.64
2023-05-10T11:31:59.416Z,15.63
2023-05-10T11:34:36.113Z,15.58
2023-05-10T11:37:10.528Z,15.64
2023-05-10T11:39:48.421Z,15.65
2023-05-10T11:42:21.782Z,15.59
2023-05-10T11:44:54.424Z,15.61
2023-05-10T11:47:27.804Z,15.53
2023-05-10T11:50:01.131Z,15.67
2023-05-10T11:52:39.243Z,15.69
2023-05-10T11:55:11.815Z,15.70
2023-05-10T11:57:47.359Z,15.70
2023-05-10T12:00:20.545Z,15.78
2023-05-10T12:02:53.693Z,15.87
2023-05-10T12:05:27.167Z,15.91
2023-05-10T12:08:14.153Z,16.01
2023-05-10T12:10:47.042Z,15.99
2023-05-10T12:13:21.906Z,16.03
2023-05-10T12:15:55.303Z,16.03
2023-05-10T12:18:27.857Z,16.03
2023-05-10T12:21:05.143Z,16.02
2023-05-10T12:23:39.465Z,15.98
2023-05-10T12:26:12.709Z,15.96
2023-05-10T12:28:45.591Z,15.92
2023-05-10T12:31:18.893Z,15.88
2023-05-10T12:33:51.542Z,15.88
2023-05-10T12:36:25.897Z,15.91
2023-05-10T12:39:05.430Z,15.86
2023-05-10T12:41:40.384Z,15.93
2023-05-10T12:44:14.137Z,15.93
2023-05-10T12:46:46.953Z,15.92
2023-05-10T12:49:20.793Z,15.92
2023-05-10T12:51:53.630Z,15.86
2023-05-10T12:54:29.014Z,15.96
2023-05-10T12:57:01.706Z,15.87
2023-05-10T12:59:36.060Z,15.97
2023-05-10T13:02:11.624Z,15.95
2023-05-10T13:04:44.186Z,15.94
2023-05-10T13:07:17.075Z,15.85
2023-05-10T13:09:51.595Z,15.84
2023-05-10T13:12:24.549Z,15.85
2023-05-10T13:14:57.396Z,15.82
2023-05-10T13:17:32.234Z,15.71
2023-05-10T13:20:08.091Z,15.79
2023-05-10T13:22:41.283Z,15.73
2023-05-10T13:25:15.225Z,15.80
2023-05-10T13:27:48.497Z,15.70
2023-05-10T13:30:25.360Z,15.77
2023-05-10T13:32:58.234Z,15.76
2023-05-10T13:35:31.251Z,15.72
2023-05-10T13:38:04.393Z,15.81
2023-05-10T13:40:41.102Z,15.85
2023-05-10T13:43:17.353Z,15.90
2023-05-10T13:45:59.837Z,15.77
2023-05-10T13:48:34.015Z,15.95
2023-05-10T13:51:06.888Z,15.98
2023-05-10T13:53:40.333Z,15.92
2023-05-10T13:56:14.514Z,16.01
2023-05-10T13:58:47.918Z,15.99
2023-05-10T14:01:20.673Z,15.90
2023-05-10T14:03:53.461Z,15.87
2023-05-10T14:06:26.303Z,15.93
2023-05-10T14:08:59.460Z,15.90
2023-05-10T14:11:33.367Z,15.89
2023-05-10T14:14:06.141Z,15.89
2023-05-10T14:16:38.909Z,15.88
2023-05-10T14:19:12.643Z,15.90
2023-05-10T14:21:45.494Z,15.85
2023-05-10T14:24:21.940Z,15.69
2023-05-10T14:26:56.201Z,15.73
2023-05-10T14:29:29.143Z,15.63
2023-05-10T14:32:02.321Z,15.82
2023-05-10T14:34:37.157Z,15.81
2023-05-10T14:37:12.606Z,15.76
2023-05-10T14:39:45.576Z,15.76
2023-05-10T14:42:22.818Z,15.75
2023-05-10T14:44:55.246Z,15.61
2023-05-10T14:47:28.752Z,15.73
2023-05-10T14:50:01.386Z,15.72
2023-05-10T14:52:39.824Z,15.65
2023-05-10T14:55:12.508Z,15.68
2023-05-10T14:57:48.492Z,15.74
2023-05-10T15:00:22.490Z,15.73
2023-05-10T15:02:55.485Z,15.73
2023-05-10T15:05:30.727Z,15.71
2023-05-10T15:08:04.187Z,15.69
2023-05-10T15:10:39.736Z,15.68
2023-05-10T15:13:16.690Z,15.59
2023-05-10T15:15:49.905Z,15.65
2023-05-10T15:18:25.192Z,15.65
2023-05-10T15:20:59.998Z,15.65
2023-05-10T15:23:33.185Z,15.66
2023-05-10T15:26:06.300Z,15.59
2023-05-10T15:28:42.554Z,15.65
2023-05-10T15:31:18.715Z,15.65
2023-05-10T15:33:58.455Z,15.63
2023-05-10T15:36:46.904Z,15.61
2023-05-10T15:39:19.430Z,15.49
2023-05-10T15:41:52.960Z,15.57
2023-05-10T15:44:26.877Z,15.55
2023-05-10T15:47:04.008Z,15.53
2023-05-10T15:49:39.873Z,15.42
2023-05-10T15:52:12.592Z,15.48
2023-05-10T15:54:46.168Z,15.36
2023-05-10T15:57:18.822Z,15.42
2023-05-10T15:59:53.412Z,15.41
2023-05-10T16:02:28.721Z,15.37
2023-05-10T16:05:01.768Z,15.22
2023-05-10T16:07:35.313Z,15.34
2023-05-10T16:10:10.674Z,15.19
2023-05-10T16:12:44.066Z,15.30
2023-05-10T16:15:19.058Z,15.26
2023-05-10T16:17:52.058Z,15.26
2023-05-10T16:20:25.008Z,15.22
2023-05-10T16:23:04.938Z,15.20
2023-05-10T16:25:37.882Z,15.17
2023-05-10T16:28:11.261Z,15.13
2023-05-10T16:30:45.425Z,15.09
2023-05-10T16:33:18.197Z,15.02
2023-05-10T16:35:51.341Z,15.00
2023-05-10T16:38:23.826Z,14.96
2023-05-10T16:41:04.566Z,14.93
2023-05-10T16:43:39.221Z,14.88
2023-05-10T16:46:15.400Z,14.84
2023-05-10T16:48:53.141Z,14.79
2023-05-10T16:51:26.040Z,14.76
2023-05-10T16:54:15.396Z,14.57
2023-05-10T17:07:37.407Z,14.35
2023-05-10T17:10:11.288Z,14.23
2023-05-10T17:12:44.032Z,14.07
2023-05-10T17:15:26.318Z,14.12
2023-05-10T17:18:00.022Z,14.04
2023-05-10T17:20:33.016Z,13.91
2023-05-10T17:23:08.157Z,13.91
2023-05-10T17:25:42.243Z,13.85
2023-05-10T17:28:17.911Z,13.76
2023-05-10T17:30:58.381Z,13.67
2023-05-10T17:33:39.084Z,13.34
2023-05-10T17:36:11.708Z,13.52
2023-05-10T17:38:45.770Z,13.31
2023-05-10T17:41:18.856Z,13.37
2023-05-10T17:43:54.621Z,13.30
2023-05-10T17:46:27.143Z,13.23
2023-05-10T17:49:00.092Z,13.15
2023-05-10T17:51:33.719Z,13.15
2023-05-10T17:54:07.761Z,13.11
2023-05-10T17:56:45.694Z,13.09
2023-05-10T17:59:18.633Z,13.03
2023-05-10T18:01:51.922Z,12.98
2023-05-10T18:04:26.206Z,12.91
2023-05-10T18:07:02.621Z,12.76
2023-05-10T18:09:36.502Z,12.81
2023-05-10T18:12:09.659Z,12.75
2023-05-10T18:14:44.610Z,12.67
2023-05-10T18:17:17.611Z,12.68
2023-05-10T18:19:50.447Z,12.56
2023-05-10T18:22:23.629Z,12.62
2023-05-10T18:24:58.240Z,12.55
2023-05-10T18:27:32.180Z,12.56
2023-05-10T18:30:10.258Z,12.53
2023-05-10T18:32:43.156Z,12.47
2023-05-10T18:35:15.967Z,12.48
2023-05-10T18:37:48.959Z,12.48
2023-05-10T18:40:23.547Z,12.49
2023-05-10T18:42:56.213Z,12.49
2023-05-10T18:45:29.462Z,12.45
2023-05-10T18:48:03.217Z,12.48
2023-05-10T18:50:41.334Z,12.49
2023-05-10T18:53:14.176Z,12.47
2023-05-10T18:55:58.899Z,12.33
2023-05-10T18:58:31.904Z,12.33
2023-05-10T19:01:05.160Z,12.30
2023-05-10T19:03:37.734Z,12.32
2023-05-10T19:06:11.457Z,12.36
2023-05-10T19:08:44.239Z,12.37
2023-05-10T19:11:19.596Z,12.37
2023-05-10T19:13:52.228Z,12.35
2023-05-10T19:16:26.062Z,12.37
2023-05-10T19:19:00.416Z,12.35
2023-05-10T19:21:34.458Z,12.34
2023-05-10T19:24:07.526Z,12.32
2023-05-10T19:26:42.178Z,12.28
2023-05-10T19:29:16.202Z,12.20
2023-05-10T19:31:49.980Z,12.26
2023-05-10T19:34:22.723Z,12.37
2023-05-10T19:36:55.635Z,12.39
2023-05-10T19:39:28.504Z,12.34
2023-05-10T19:42:03.130Z,12.27
2023-05-10T19:44:35.910Z,12.22
2023-05-10T19:47:09.660Z,12.20
2023-05-10T19:49:42.252Z,12.18
2023-05-10T19:52:18.166Z,12.17
2023-05-10T19:54:50.617Z,12.16
2023-05-10T19:57:25.020Z,12.14
2023-05-10T19:59:57.885Z,12.12
2023-05-10T20:02:32.268Z,12.09
2023-05-10T20:05:06.029Z,11.98
2023-05-10T20:07:38.912Z,11.93
2023-05-10T20:10:12.197Z,12.01
2023-05-10T20:12:52.912Z,11.98
2023-05-10T20:15:26.458Z,11.91
2023-05-10T20:17:59.195Z,11.90
2023-05-10T20:20:33.207Z,11.86
2023-05-10T20:23:06.287Z,11.81
2023-05-10T20:25:39.178Z,11.64
2023-05-10T20:28:13.555Z,11.72
2023-05-10T20:30:46.349Z,11.67
2023-05-10T20:33:21.702Z,11.62
2023-05-10T20:35:57.812Z,11.59
2023-05-10T20:38:30.309Z,11.50
2023-05-10T20:41:03.540Z,11.47
2023-05-10T20:43:37.880Z,11.44
2023-05-10T20:46:10.913Z,11.37
2023-05-10T20:48:43.538Z,11.37
2023-05-10T20:51:16.507Z,11.35
2023-05-10T20:53:49.767Z,11.30
2023-05-10T20:56:22.643Z,11.32
2023-05-10T20:58:56.846Z,11.25
2023-05-10T21:01:29.555Z,11.25
2023-05-10T21:04:02.458Z,11.19
2023-05-10T21:06:35.150Z,11.12
2023-05-10T21:09:08.302Z,11.07
2023-05-10T21:11:40.741Z,11.00
2023-05-10T21:14:15.223Z,10.92
2023-05-10T21:16:48.104Z,10.89
2023-05-10T21:19:21.186Z,10.82
2023-05-10T21:21:56.182Z,10.78
2023-05-10T21:24:29.598Z,10.73
2023-05-10T21:27:02.953Z,10.68
2023-05-10T21:29:37.657Z,10.64
2023-05-10T21:32:10.153Z,10.55
2023-05-10T21:34:43.223Z,10.56
2023-05-10T21:37:17.403Z,10.48
2023-05-10T21:39:50.500Z,10.47
2023-05-10T21:42:23.178Z,10.43
2023-05-10T21:44:57.877Z,10.38
2023-05-10T21:47:30.851Z,10.33
2023-05-10T21:50:04.182Z,10.23
2023-05-10T21:52:38.322Z,10.22
2023-05-10T21:55:10.994Z,10.17
2023-05-10T21:57:45.276Z,10.12
2023-05-10T22:00:19.854Z,10.07
2023-05-10T22:02:53.352Z,10.00
2023-05-10T22:05:26.380Z,9.93
2023-05-10T22:07:59.411Z,9.85
2023-05-10T22:10:32.950Z,9.89
2023-05-10T22:13:06.089Z,9.84
2023-05-10T22:15:39.967Z,9.78
2023-05-10T22:18:12.906Z,9.72
2023-05-10T22:20:45.837Z,9.67
2023-05-10T22:23:19.093Z,9.60
2023-05-10T22:25:51.951Z,9.52
2023-05-10T22:28:24.872Z,9.56
2023-05-10T22:30:59.270Z,9.54
2023-05-10T22:33:32.413Z,9.52
2023-05-10T22:36:06.198Z,9.43
2023-05-10T22:38:39.578Z,9.46
2023-05-10T22:41:11.974Z,9.45
2023-05-10T22:43:46.094Z,9.40
2023-05-10T22:46:20.001Z,9.42
2023-05-10T22:48:56.165Z,9.39
2023-05-10T22:51:29.039Z,9.35
2023-05-10T22:54:01.621Z,9.33
2023-05-10T22:56:34.831Z,9.28
2023-05-10T22:59:07.426Z,9.17
2023-05-10T23:01:42.046Z,9.22
2023-05-10T23:04:15.227Z,9.14
2023-05-10T23:06:48.183Z,9.05
2023-05-10T23:09:21.367Z,9.03
2023-05-10T23:11:54.403Z,9.14
2023-05-10T23:14:27.261Z,9.13
2023-05-10T23:17:01.248Z,9.07
2023-05-10T23:19:34.611Z,8.97
2023-05-10T23:22:07.109Z,9.08
2023-05-10T23:24:40.289Z,8.96
2023-05-10T23:27:13.072Z,9.01
2023-05-10T23:29:46.219Z,8.98
2023-05-10T23:32:20.572Z,8.96
2023-05-10T23:34:53.707Z,8.87
2023-05-10T23:37:26.295Z,8.95
2023-05-10T23:39:59.795Z,8.93
2023-05-10T23:42:32.945Z,8.89
2023-05-10T23:45:06.830Z,8.87
2023-05-10T23:47:40.829Z,8.83
2023-05-10T23:50:13.927Z,8.84
2023-05-10T23:52:46.420Z,8.86
2023-05-10T23:55:19.495Z,8.88
2023-05-10T23:57:54.199Z,8.90
